sensor_id;sensor_type;location;lat;lon;timestamp;pressure;altitude;pressure_sealevel;temperature
19644;BMP180;9970;-36.854;174.870;2022-12-18T00:00:14;100457.00;;;22.60
19644;BMP180;9970;-36.854;174.870;2022-12-18T00:02:47;100460.00;;;22.70
19644;BMP180;9970;-36.854;174.870;2022-12-18T00:05:21;100467.00;;;22.70
19644;BMP180;9970;-36.854;174.870;2022-12-18T00:07:54;100470.00;;;22.70
19644;BMP180;9970;-36.854;174.870;2022-12-18T00:10:32;100468.00;;;22.70
19644;BMP180;9970;-36.854;174.870;2022-12-18T00:13:05;100476.00;;;22.70
19644;BMP180;9970;-36.854;174.870;2022-12-18T00:15:39;100475.00;;;22.80
19644;BMP180;9970;-36.854;174.870;2022-12-18T00:18:12;100456.00;;;22.80
19644;BMP180;9970;-36.854;174.870;2022-12-18T00:20:46;100469.00;;;22.80
19644;BMP180;9970;-36.854;174.870;2022-12-18T00:23:19;100470.00;;;22.80
19644;BMP180;9970;-36.854;174.870;2022-12-18T00:25:52;100462.00;;;22.70
19644;BMP180;9970;-36.854;174.870;2022-12-18T00:28:25;100465.00;;;22.70
19644;BMP180;9970;-36.854;174.870;2022-12-18T00:31:05;100464.00;;;22.70
19644;BMP180;9970;-36.854;174.870;2022-12-18T00:33:38;100468.00;;;22.70
19644;BMP180;9970;-36.854;174.870;2022-12-18T00:36:14;100461.00;;;22.60
19644;BMP180;9970;-36.854;174.870;2022-12-18T00:38:46;100451.00;;;22.60
19644;BMP180;9970;-36.854;174.870;2022-12-18T00:41:19;100456.00;;;22.50
19644;BMP180;9970;-36.854;174.870;2022-12-18T00:44:12;100452.00;;;22.50
19644;BMP180;9970;-36.854;174.870;2022-12-18T00:46:45;100459.00;;;22.50
19644;BMP180;9970;-36.854;174.870;2022-12-18T00:49:19;100441.00;;;22.40
19644;BMP180;9970;-36.854;174.870;2022-12-18T00:51:59;100443.00;;;22.40
19644;BMP180;9970;-36.854;174.870;2022-12-18T00:54:33;100448.00;;;22.50
19644;BMP180;9970;-36.854;174.870;2022-12-18T00:57:06;100451.00;;;22.50
19644;BMP180;9970;-36.854;174.870;2022-12-18T00:59:39;100446.00;;;22.50
19644;BMP180;9970;-36.854;174.870;2022-12-18T01:02:12;100430.00;;;22.40
19644;BMP180;9970;-36.854;174.870;2022-12-18T01:04:45;100418.00;;;22.40
19644;BMP180;9970;-36.854;174.870;2022-12-18T01:07:18;100421.00;;;22.40
19644;BMP180;9970;-36.854;174.870;2022-12-18T01:09:51;100423.00;;;22.40
19644;BMP180;9970;-36.854;174.870;2022-12-18T01:12:24;100428.00;;;22.40
19644;BMP180;9970;-36.854;174.870;2022-12-18T01:14:57;100438.00;;;22.40
19644;BMP180;9970;-36.854;174.870;2022-12-18T01:17:30;100420.00;;;22.30
19644;BMP180;9970;-36.854;174.870;2022-12-18T01:20:03;100425.00;;;22.30
19644;BMP180;9970;-36.854;174.870;2022-12-18T01:22:37;100429.00;;;22.30
19644;BMP180;9970;-36.854;174.870;2022-12-18T01:25:10;100427.00;;;22.30
19644;BMP180;9970;-36.854;174.870;2022-12-18T01:27:43;100434.00;;;22.40
19644;BMP180;9970;-36.854;174.870;2022-12-18T01:30:16;100432.00;;;22.40
19644;BMP180;9970;-36.854;174.870;2022-12-18T01:32:49;100428.00;;;22.50
19644;BMP180;9970;-36.854;174.870;2022-12-18T01:35:22;100431.00;;;22.50
19644;BMP180;9970;-36.854;174.870;2022-12-18T01:37:58;100434.00;;;22.50
19644;BMP180;9970;-36.854;174.870;2022-12-18T01:40:30;100431.00;;;22.60
19644;BMP180;9970;-36.854;174.870;2022-12-18T01:43:04;100430.00;;;22.60
19644;BMP180;9970;-36.854;174.870;2022-12-18T01:45:37;100422.00;;;22.70
19644;BMP180;9970;-36.854;174.870;2022-12-18T01:48:10;100411.00;;;22.70
19644;BMP180;9970;-36.854;174.870;2022-12-18T01:50:44;100409.00;;;22.70
19644;BMP180;9970;-36.854;174.870;2022-12-18T01:53:18;100411.00;;;22.70
19644;BMP180;9970;-36.854;174.870;2022-12-18T01:55:53;100412.00;;;22.70
19644;BMP180;9970;-36.854;174.870;2022-12-18T01:58:37;100419.00;;;22.70
19644;BMP180;9970;-36.854;174.870;2022-12-18T02:01:07;100418.00;;;22.70
19644;BMP180;9970;-36.854;174.870;2022-12-18T02:03:43;100409.00;;;22.80
19644;BMP180;9970;-36.854;174.870;2022-12-18T02:06:33;100398.00;;;22.80
19644;BMP180;9970;-36.854;174.870;2022-12-18T02:12:04;100400.00;;;22.80
19644;BMP180;9970;-36.854;174.870;2022-12-18T02:23:11;100390.00;;;22.80
19644;BMP180;9970;-36.854;174.870;2022-12-18T02:26:05;100404.00;;;22.80
19644;BMP180;9970;-36.854;174.870;2022-12-18T02:28:41;100409.00;;;22.80
19644;BMP180;9970;-36.854;174.870;2022-12-18T02:31:17;100405.00;;;22.80
19644;BMP180;9970;-36.854;174.870;2022-12-18T02:33:56;100394.00;;;22.80
19644;BMP180;9970;-36.854;174.870;2022-12-18T02:36:25;100396.00;;;22.80
19644;BMP180;9970;-36.854;174.870;2022-12-18T02:38:59;100394.00;;;22.80
19644;BMP180;9970;-36.854;174.870;2022-12-18T02:41:33;100397.00;;;22.80
19644;BMP180;9970;-36.854;174.870;2022-12-18T02:44:12;100398.00;;;22.80
19644;BMP180;9970;-36.854;174.870;2022-12-18T02:46:46;100401.00;;;22.80
19644;BMP180;9970;-36.854;174.870;2022-12-18T02:49:22;100387.00;;;22.80
19644;BMP180;9970;-36.854;174.870;2022-12-18T02:55:05;100386.00;;;22.80
19644;BMP180;9970;-36.854;174.870;2022-12-18T02:58:05;100383.00;;;22.80
19644;BMP180;9970;-36.854;174.870;2022-12-18T03:03:38;100374.00;;;22.70
19644;BMP180;9970;-36.854;174.870;2022-12-18T03:09:07;100375.00;;;22.70
19644;BMP180;9970;-36.854;174.870;2022-12-18T03:11:40;100386.00;;;22.70
19644;BMP180;9970;-36.854;174.870;2022-12-18T03:14:32;100394.00;;;22.70
19644;BMP180;9970;-36.854;174.870;2022-12-18T03:17:07;100379.00;;;22.70
19644;BMP180;9970;-36.854;174.870;2022-12-18T03:19:41;100387.00;;;22.70
19644;BMP180;9970;-36.854;174.870;2022-12-18T03:22:16;100385.00;;;22.70
19644;BMP180;9970;-36.854;174.870;2022-12-18T03:24:49;100381.00;;;22.60
19644;BMP180;9970;-36.854;174.870;2022-12-18T03:27:24;100380.00;;;22.60
19644;BMP180;9970;-36.854;174.870;2022-12-18T03:30:03;100380.00;;;22.60
19644;BMP180;9970;-36.854;174.870;2022-12-18T03:35:30;100374.00;;;22.70
19644;BMP180;9970;-36.854;174.870;2022-12-18T03:38:03;100369.00;;;22.70
19644;BMP180;9970;-36.854;174.870;2022-12-18T03:49:01;100352.00;;;22.70
19644;BMP180;9970;-36.854;174.870;2022-12-18T03:51:48;100345.00;;;22.70
19644;BMP180;9970;-36.854;174.870;2022-12-18T03:54:17;100343.00;;;22.70
19644;BMP180;9970;-36.854;174.870;2022-12-18T03:56:54;100338.00;;;22.60
19644;BMP180;9970;-36.854;174.870;2022-12-18T03:59:26;100341.00;;;22.70
19644;BMP180;9970;-36.854;174.870;2022-12-18T04:02:00;100337.00;;;22.60
19644;BMP180;9970;-36.854;174.870;2022-12-18T04:04:40;100344.00;;;22.60
19644;BMP180;9970;-36.854;174.870;2022-12-18T04:07:13;100348.00;;;22.60
19644;BMP180;9970;-36.854;174.870;2022-12-18T04:09:47;100352.00;;;22.60
19644;BMP180;9970;-36.854;174.870;2022-12-18T04:12:23;100350.00;;;22.60
19644;BMP180;9970;-36.854;174.870;2022-12-18T04:14:56;100353.00;;;22.60
19644;BMP180;9970;-36.854;174.870;2022-12-18T04:17:28;100365.00;;;22.60
19644;BMP180;9970;-36.854;174.870;2022-12-18T04:20:01;100363.00;;;22.60
19644;BMP180;9970;-36.854;174.870;2022-12-18T04:22:34;100368.00;;;22.60
19644;BMP180;9970;-36.854;174.870;2022-12-18T04:25:08;100366.00;;;22.50
19644;BMP180;9970;-36.854;174.870;2022-12-18T04:27:41;100369.00;;;22.50
19644;BMP180;9970;-36.854;174.870;2022-12-18T04:30:14;100367.00;;;22.50
19644;BMP180;9970;-36.854;174.870;2022-12-18T04:32:47;100370.00;;;22.50
19644;BMP180;9970;-36.854;174.870;2022-12-18T04:35:20;100369.00;;;22.40
19644;BMP180;9970;-36.854;174.870;2022-12-18T04:37:53;100363.00;;;22.40
19644;BMP180;9970;-36.854;174.870;2022-12-18T04:40:26;100371.00;;;22.40
19644;BMP180;9970;-36.854;174.870;2022-12-18T04:42:59;100371.00;;;22.40
19644;BMP180;9970;-36.854;174.870;2022-12-18T04:45:33;100370.00;;;22.40
19644;BMP180;9970;-36.854;174.870;2022-12-18T04:48:06;100360.00;;;22.30
19644;BMP180;9970;-36.854;174.870;2022-12-18T04:50:39;100367.00;;;22.30
19644;BMP180;9970;-36.854;174.870;2022-12-18T04:53:12;100371.00;;;22.30
19644;BMP180;9970;-36.854;174.870;2022-12-18T04:55:45;100368.00;;;22.30
19644;BMP180;9970;-36.854;174.870;2022-12-18T04:58:21;100366.00;;;22.20
19644;BMP180;9970;-36.854;174.870;2022-12-18T05:00:54;100375.00;;;22.20
19644;BMP180;9970;-36.854;174.870;2022-12-18T05:03:27;100370.00;;;22.20
19644;BMP180;9970;-36.854;174.870;2022-12-18T05:06:00;100366.00;;;22.20
19644;BMP180;9970;-36.854;174.870;2022-12-18T05:08:33;100369.00;;;22.10
19644;BMP180;9970;-36.854;174.870;2022-12-18T05:11:11;100370.00;;;22.10
19644;BMP180;9970;-36.854;174.870;2022-12-18T05:13:48;100372.00;;;22.00
19644;BMP180;9970;-36.854;174.870;2022-12-18T05:16:20;100363.00;;;22.00
19644;BMP180;9970;-36.854;174.870;2022-12-18T05:18:53;100364.00;;;22.00
19644;BMP180;9970;-36.854;174.870;2022-12-18T05:21:26;100368.00;;;21.90
19644;BMP180;9970;-36.854;174.870;2022-12-18T05:24:04;100356.00;;;21.90
19644;BMP180;9970;-36.854;174.870;2022-12-18T05:26:37;100362.00;;;21.90
19644;BMP180;9970;-36.854;174.870;2022-12-18T05:29:12;100368.00;;;21.90
19644;BMP180;9970;-36.854;174.870;2022-12-18T05:31:45;100377.00;;;21.80
19644;BMP180;9970;-36.854;174.870;2022-12-18T05:34:18;100374.00;;;21.80
19644;BMP180;9970;-36.854;174.870;2022-12-18T05:36:51;100379.00;;;21.80
19644;BMP180;9970;-36.854;174.870;2022-12-18T05:39:24;100374.00;;;21.80
19644;BMP180;9970;-36.854;174.870;2022-12-18T05:41:57;100382.00;;;21.80
19644;BMP180;9970;-36.854;174.870;2022-12-18T05:44:30;100377.00;;;21.70
19644;BMP180;9970;-36.854;174.870;2022-12-18T05:47:03;100383.00;;;21.70
19644;BMP180;9970;-36.854;174.870;2022-12-18T05:49:35;100389.00;;;21.70
19644;BMP180;9970;-36.854;174.870;2022-12-18T05:52:09;100393.00;;;21.70
19644;BMP180;9970;-36.854;174.870;2022-12-18T05:54:46;100393.00;;;21.60
19644;BMP180;9970;-36.854;174.870;2022-12-18T05:57:19;100390.00;;;21.60
19644;BMP180;9970;-36.854;174.870;2022-12-18T05:59:52;100397.00;;;21.60
19644;BMP180;9970;-36.854;174.870;2022-12-18T06:02:25;100392.00;;;21.60
19644;BMP180;9970;-36.854;174.870;2022-12-18T06:04:58;100401.00;;;21.60
19644;BMP180;9970;-36.854;174.870;2022-12-18T06:07:31;100408.00;;;21.50
19644;BMP180;9970;-36.854;174.870;2022-12-18T06:10:04;100410.00;;;21.50
19644;BMP180;9970;-36.854;174.870;2022-12-18T06:12:38;100415.00;;;21.50
19644;BMP180;9970;-36.854;174.870;2022-12-18T06:15:11;100416.00;;;21.50
19644;BMP180;9970;-36.854;174.870;2022-12-18T06:17:45;100412.00;;;21.40
19644;BMP180;9970;-36.854;174.870;2022-12-18T06:20:18;100409.00;;;21.40
19644;BMP180;9970;-36.854;174.870;2022-12-18T06:22:51;100415.00;;;21.40
19644;BMP180;9970;-36.854;174.870;2022-12-18T06:25:24;100408.00;;;21.40
19644;BMP180;9970;-36.854;174.870;2022-12-18T06:27:57;100416.00;;;21.40
19644;BMP180;9970;-36.854;174.870;2022-12-18T06:30:30;100419.00;;;21.40
19644;BMP180;9970;-36.854;174.870;2022-12-18T06:33:03;100420.00;;;21.40
19644;BMP180;9970;-36.854;174.870;2022-12-18T06:35:37;100428.00;;;21.40
19644;BMP180;9970;-36.854;174.870;2022-12-18T06:38:10;100429.00;;;21.40
19644;BMP180;9970;-36.854;174.870;2022-12-18T06:40:43;100435.00;;;21.30
19644;BMP180;9970;-36.854;174.870;2022-12-18T06:43:16;100442.00;;;21.30
19644;BMP180;9970;-36.854;174.870;2022-12-18T06:45:49;100451.00;;;21.30
19644;BMP180;9970;-36.854;174.870;2022-12-18T06:48:27;100450.00;;;21.30
19644;BMP180;9970;-36.854;174.870;2022-12-18T06:51:03;100453.00;;;21.30
19644;BMP180;9970;-36.854;174.870;2022-12-18T06:53:36;100462.00;;;21.30
19644;BMP180;9970;-36.854;174.870;2022-12-18T06:56:10;100461.00;;;21.30
19644;BMP180;9970;-36.854;174.870;2022-12-18T06:58:43;100445.00;;;21.20
19644;BMP180;9970;-36.854;174.870;2022-12-18T07:01:20;100459.00;;;21.20
19644;BMP180;9970;-36.854;174.870;2022-12-18T07:03:54;100461.00;;;21.20
19644;BMP180;9970;-36.854;174.870;2022-12-18T07:06:27;100463.00;;;21.20
19644;BMP180;9970;-36.854;174.870;2022-12-18T07:09:00;100465.00;;;21.20
19644;BMP180;9970;-36.854;174.870;2022-12-18T07:11:36;100464.00;;;21.10
19644;BMP180;9970;-36.854;174.870;2022-12-18T07:14:09;100459.00;;;21.10
19644;BMP180;9970;-36.854;174.870;2022-12-18T07:16:42;100470.00;;;21.10
19644;BMP180;9970;-36.854;174.870;2022-12-18T07:19:15;100473.00;;;21.10
19644;BMP180;9970;-36.854;174.870;2022-12-18T07:21:49;100474.00;;;21.10
19644;BMP180;9970;-36.854;174.870;2022-12-18T07:24:22;100480.00;;;21.00
19644;BMP180;9970;-36.854;174.870;2022-12-18T07:26:55;100484.00;;;21.00
19644;BMP180;9970;-36.854;174.870;2022-12-18T07:29:27;100484.00;;;21.00
19644;BMP180;9970;-36.854;174.870;2022-12-18T07:32:00;100487.00;;;21.00
19644;BMP180;9970;-36.854;174.870;2022-12-18T07:34:36;100490.00;;;21.00
19644;BMP180;9970;-36.854;174.870;2022-12-18T07:37:09;100481.00;;;20.90
19644;BMP180;9970;-36.854;174.870;2022-12-18T07:39:42;100486.00;;;20.90
19644;BMP180;9970;-36.854;174.870;2022-12-18T07:42:17;100487.00;;;20.90
19644;BMP180;9970;-36.854;174.870;2022-12-18T07:45:03;100496.00;;;20.90
19644;BMP180;9970;-36.854;174.870;2022-12-18T07:47:36;100492.00;;;20.90
19644;BMP180;9970;-36.854;174.870;2022-12-18T07:50:09;100494.00;;;20.90
19644;BMP180;9970;-36.854;174.870;2022-12-18T07:52:45;100492.00;;;20.90
19644;BMP180;9970;-36.854;174.870;2022-12-18T07:55:18;100488.00;;;20.80
19644;BMP180;9970;-36.854;174.870;2022-12-18T07:57:51;100498.00;;;20.80
19644;BMP180;9970;-36.854;174.870;2022-12-18T08:00:26;100511.00;;;20.80
19644;BMP180;9970;-36.854;174.870;2022-12-18T08:03:08;100511.00;;;20.80
19644;BMP180;9970;-36.854;174.870;2022-12-18T08:05:46;100509.00;;;20.80
19644;BMP180;9970;-36.854;174.870;2022-12-18T08:08:22;100508.00;;;20.80
19644;BMP180;9970;-36.854;174.870;2022-12-18T08:10:58;100509.00;;;20.80
19644;BMP180;9970;-36.854;174.870;2022-12-18T08:13:33;100509.00;;;20.80
19644;BMP180;9970;-36.854;174.870;2022-12-18T08:16:09;100512.00;;;20.80
19644;BMP180;9970;-36.854;174.870;2022-12-18T08:18:42;100518.00;;;20.80
19644;BMP180;9970;-36.854;174.870;2022-12-18T08:21:23;100525.00;;;20.70
19644;BMP180;9970;-36.854;174.870;2022-12-18T08:24:06;100527.00;;;20.70
19644;BMP180;9970;-36.854;174.870;2022-12-18T08:26:44;100533.00;;;20.70
19644;BMP180;9970;-36.854;174.870;2022-12-18T08:29:22;100536.00;;;20.70
19644;BMP180;9970;-36.854;174.870;2022-12-18T08:31:56;100536.00;;;20.70
19644;BMP180;9970;-36.854;174.870;2022-12-18T08:34:38;100547.00;;;20.70
19644;BMP180;9970;-36.854;174.870;2022-12-18T08:37:11;100549.00;;;20.70
19644;BMP180;9970;-36.854;174.870;2022-12-18T08:39:55;100557.00;;;20.70
19644;BMP180;9970;-36.854;174.870;2022-12-18T08:42:29;100561.00;;;20.60
19644;BMP180;9970;-36.854;174.870;2022-12-18T08:45:20;100555.00;;;20.60
19644;BMP180;9970;-36.854;174.870;2022-12-18T08:47:53;100566.00;;;20.60
19644;BMP180;9970;-36.854;174.870;2022-12-18T08:50:26;100560.00;;;20.60
19644;BMP180;9970;-36.854;174.870;2022-12-18T08:53:01;100561.00;;;20.60
19644;BMP180;9970;-36.854;174.870;2022-12-18T08:55:34;100572.00;;;20.60
19644;BMP180;9970;-36.854;174.870;2022-12-18T08:58:07;100574.00;;;20.60
19644;BMP180;9970;-36.854;174.870;2022-12-18T09:00:40;100574.00;;;20.60
19644;BMP180;9970;-36.854;174.870;2022-12-18T09:03:17;100571.00;;;20.50
19644;BMP180;9970;-36.854;174.870;2022-12-18T09:05:51;100571.00;;;20.50
19644;BMP180;9970;-36.854;174.870;2022-12-18T09:08:26;100578.00;;;20.50
19644;BMP180;9970;-36.854;174.870;2022-12-18T09:11:04;100578.00;;;20.50
19644;BMP180;9970;-36.854;174.870;2022-12-18T09:13:38;100579.00;;;20.40
19644;BMP180;9970;-36.854;174.870;2022-12-18T09:16:14;100574.00;;;20.40
19644;BMP180;9970;-36.854;174.870;2022-12-18T09:18:57;100576.00;;;20.40
19644;BMP180;9970;-36.854;174.870;2022-12-18T09:21:34;100581.00;;;20.40
19644;BMP180;9970;-36.854;174.870;2022-12-18T09:24:15;100580.00;;;20.40
19644;BMP180;9970;-36.854;174.870;2022-12-18T09:26:52;100572.00;;;20.30
19644;BMP180;9970;-36.854;174.870;2022-12-18T09:29:24;100586.00;;;20.30
19644;BMP180;9970;-36.854;174.870;2022-12-18T09:31:57;100579.00;;;20.30
19644;BMP180;9970;-36.854;174.870;2022-12-18T09:34:30;100591.00;;;20.30
19644;BMP180;9970;-36.854;174.870;2022-12-18T09:37:03;100583.00;;;20.30
19644;BMP180;9970;-36.854;174.870;2022-12-18T09:39:36;100591.00;;;20.20
19644;BMP180;9970;-36.854;174.870;2022-12-18T09:42:21;100586.00;;;20.20
19644;BMP180;9970;-36.854;174.870;2022-12-18T09:44:55;100583.00;;;20.20
19644;BMP180;9970;-36.854;174.870;2022-12-18T09:47:33;100587.00;;;20.20
19644;BMP180;9970;-36.854;174.870;2022-12-18T09:50:15;100590.00;;;20.20
19644;BMP180;9970;-36.854;174.870;2022-12-18T09:52:44;100594.00;;;20.10
19644;BMP180;9970;-36.854;174.870;2022-12-18T09:55:34;100587.00;;;20.10
19644;BMP180;9970;-36.854;174.870;2022-12-18T09:58:24;100601.00;;;20.10
19644;BMP180;9970;-36.854;174.870;2022-12-18T10:00:55;100597.00;;;20.10
19644;BMP180;9970;-36.854;174.870;2022-12-18T10:03:28;100600.00;;;20.00
19644;BMP180;9970;-36.854;174.870;2022-12-18T10:06:20;100597.00;;;20.00
19644;BMP180;9970;-36.854;174.870;2022-12-18T10:09:00;100589.00;;;20.00
19644;BMP180;9970;-36.854;174.870;2022-12-18T10:12:02;100590.00;;;20.00
19644;BMP180;9970;-36.854;174.870;2022-12-18T10:17:45;100592.00;;;19.90
19644;BMP180;9970;-36.854;174.870;2022-12-18T10:20:48;100592.00;;;19.80
19644;BMP180;9970;-36.854;174.870;2022-12-18T10:26:08;100590.00;;;19.80
19644;BMP180;9970;-36.854;174.870;2022-12-18T10:28:37;100592.00;;;19.80
19644;BMP180;9970;-36.854;174.870;2022-12-18T10:31:19;100587.00;;;19.70
19644;BMP180;9970;-36.854;174.870;2022-12-18T10:33:54;100578.00;;;19.70
19644;BMP180;9970;-36.854;174.870;2022-12-18T10:36:27;100581.00;;;19.70
19644;BMP180;9970;-36.854;174.870;2022-12-18T10:39:20;100587.00;;;19.70
19644;BMP180;9970;-36.854;174.870;2022-12-18T10:42:37;100578.00;;;19.70
19644;BMP180;9970;-36.854;174.870;2022-12-18T10:44:31;100581.00;;;19.70
19644;BMP180;9970;-36.854;174.870;2022-12-18T10:47:06;100574.00;;;19.60
19644;BMP180;9970;-36.854;174.870;2022-12-18T10:49:50;100571.00;;;19.70
19644;BMP180;9970;-36.854;174.870;2022-12-18T10:52:22;100572.00;;;19.70
19644;BMP180;9970;-36.854;174.870;2022-12-18T10:55:01;100572.00;;;19.70
19644;BMP180;9970;-36.854;174.870;2022-12-18T10:57:38;100572.00;;;19.60
19644;BMP180;9970;-36.854;174.870;2022-12-18T11:00:23;100565.00;;;19.60
19644;BMP180;9970;-36.854;174.870;2022-12-18T11:02:59;100568.00;;;19.60
19644;BMP180;9970;-36.854;174.870;2022-12-18T11:05:33;100571.00;;;19.60
19644;BMP180;9970;-36.854;174.870;2022-12-18T11:08:12;100570.00;;;19.60
19644;BMP180;9970;-36.854;174.870;2022-12-18T11:10:44;100575.00;;;19.60
19644;BMP180;9970;-36.854;174.870;2022-12-18T11:13:20;100573.00;;;19.60
19644;BMP180;9970;-36.854;174.870;2022-12-18T11:15:53;100572.00;;;19.60
19644;BMP180;9970;-36.854;174.870;2022-12-18T11:18:30;100573.00;;;19.60
19644;BMP180;9970;-36.854;174.870;2022-12-18T11:21:08;100569.00;;;19.60
19644;BMP180;9970;-36.854;174.870;2022-12-18T11:23:54;100568.00;;;19.60
19644;BMP180;9970;-36.854;174.870;2022-12-18T11:26:33;100564.00;;;19.60
19644;BMP180;9970;-36.854;174.870;2022-12-18T11:29:16;100564.00;;;19.60
19644;BMP180;9970;-36.854;174.870;2022-12-18T11:31:47;100565.00;;;19.60
19644;BMP180;9970;-36.854;174.870;2022-12-18T11:34:30;100563.00;;;19.60
19644;BMP180;9970;-36.854;174.870;2022-12-18T11:36:59;100555.00;;;19.60
19644;BMP180;9970;-36.854;174.870;2022-12-18T11:39:49;100553.00;;;19.60
19644;BMP180;9970;-36.854;174.870;2022-12-18T11:42:38;100554.00;;;19.60
19644;BMP180;9970;-36.854;174.870;2022-12-18T11:45:21;100555.00;;;19.60
19644;BMP180;9970;-36.854;174.870;2022-12-18T11:48:13;100549.00;;;19.60
19644;BMP180;9970;-36.854;174.870;2022-12-18T11:50:47;100549.00;;;19.50
19644;BMP180;9970;-36.854;174.870;2022-12-18T11:53:20;100545.00;;;19.50
19644;BMP180;9970;-36.854;174.870;2022-12-18T11:58:47;100546.00;;;19.50
19644;BMP180;9970;-36.854;174.870;2022-12-18T12:01:39;100543.00;;;19.40
19644;BMP180;9970;-36.854;174.870;2022-12-18T12:04:25;100537.00;;;19.40
19644;BMP180;9970;-36.854;174.870;2022-12-18T12:07:03;100533.00;;;19.40
19644;BMP180;9970;-36.854;174.870;2022-12-18T12:17:55;100544.00;;;19.30
19644;BMP180;9970;-36.854;174.870;2022-12-18T12:23:32;100539.00;;;19.20
19644;BMP180;9970;-36.854;174.870;2022-12-18T12:26:18;100529.00;;;19.20
19644;BMP180;9970;-36.854;174.870;2022-12-18T12:29:00;100539.00;;;19.20
19644;BMP180;9970;-36.854;174.870;2022-12-18T12:34:46;100519.00;;;19.20
19644;BMP180;9970;-36.854;174.870;2022-12-18T12:40:06;100525.00;;;19.10
19644;BMP180;9970;-36.854;174.870;2022-12-18T12:42:51;100530.00;;;19.10
19644;BMP180;9970;-36.854;174.870;2022-12-18T12:46:00;100535.00;;;19.10
19644;BMP180;9970;-36.854;174.870;2022-12-18T12:48:54;100527.00;;;19.00
19644;BMP180;9970;-36.854;174.870;2022-12-18T12:51:33;100524.00;;;19.00
19644;BMP180;9970;-36.854;174.870;2022-12-18T12:54:05;100520.00;;;19.00
19644;BMP180;9970;-36.854;174.870;2022-12-18T12:56:55;100520.00;;;19.00
19644;BMP180;9970;-36.854;174.870;2022-12-18T12:59:50;100521.00;;;19.00
19644;BMP180;9970;-36.854;174.870;2022-12-18T13:08:10;100503.00;;;19.00
19644;BMP180;9970;-36.854;174.870;2022-12-18T13:10:45;100512.00;;;19.00
19644;BMP180;9970;-36.854;174.870;2022-12-18T13:13:19;100516.00;;;18.90
19644;BMP180;9970;-36.854;174.870;2022-12-18T13:16:08;100514.00;;;18.90
19644;BMP180;9970;-36.854;174.870;2022-12-18T13:18:48;100505.00;;;18.90
19644;BMP180;9970;-36.854;174.870;2022-12-18T13:21:27;100507.00;;;18.90
19644;BMP180;9970;-36.854;174.870;2022-12-18T13:23:56;100502.00;;;18.90
19644;BMP180;9970;-36.854;174.870;2022-12-18T13:26:34;100505.00;;;18.90
19644;BMP180;9970;-36.854;174.870;2022-12-18T13:29:06;100506.00;;;18.90
19644;BMP180;9970;-36.854;174.870;2022-12-18T13:34:20;100497.00;;;18.90
19644;BMP180;9970;-36.854;174.870;2022-12-18T13:36:55;100488.00;;;18.90
19644;BMP180;9970;-36.854;174.870;2022-12-18T13:39:35;100487.00;;;18.90
19644;BMP180;9970;-36.854;174.870;2022-12-18T13:44:44;100488.00;;;18.90
19644;BMP180;9970;-36.854;174.870;2022-12-18T13:47:35;100477.00;;;18.80
19644;BMP180;9970;-36.854;174.870;2022-12-18T13:50:25;100485.00;;;18.80
19644;BMP180;9970;-36.854;174.870;2022-12-18T13:52:59;100486.00;;;18.80
19644;BMP180;9970;-36.854;174.870;2022-12-18T13:55:38;100482.00;;;18.80
19644;BMP180;9970;-36.854;174.870;2022-12-18T13:58:11;100481.00;;;18.80
19644;BMP180;9970;-36.854;174.870;2022-12-18T14:00:45;100477.00;;;18.80
19644;BMP180;9970;-36.854;174.870;2022-12-18T14:03:26;100467.00;;;18.80
19644;BMP180;9970;-36.854;174.870;2022-12-18T14:06:06;100468.00;;;18.70
19644;BMP180;9970;-36.854;174.870;2022-12-18T14:08:41;100462.00;;;18.70
19644;BMP180;9970;-36.854;174.870;2022-12-18T14:11:22;100457.00;;;18.70
19644;BMP180;9970;-36.854;174.870;2022-12-18T14:13:57;100451.00;;;18.70
19644;BMP180;9970;-36.854;174.870;2022-12-18T14:16:31;100456.00;;;18.60
19644;BMP180;9970;-36.854;174.870;2022-12-18T14:19:08;100450.00;;;18.60
19644;BMP180;9970;-36.854;174.870;2022-12-18T14:21:45;100448.00;;;18.60
19644;BMP180;9970;-36.854;174.870;2022-12-18T14:24:19;100444.00;;;18.60
19644;BMP180;9970;-36.854;174.870;2022-12-18T14:26:52;100459.00;;;18.60
19644;BMP180;9970;-36.854;174.870;2022-12-18T14:29:30;100453.00;;;18.60
19644;BMP180;9970;-36.854;174.870;2022-12-18T14:32:17;100454.00;;;18.50
19644;BMP180;9970;-36.854;174.870;2022-12-18T14:34:52;100448.00;;;18.50
19644;BMP180;9970;-36.854;174.870;2022-12-18T14:37:27;100453.00;;;18.50
19644;BMP180;9970;-36.854;174.870;2022-12-18T14:40:05;100451.00;;;18.40
19644;BMP180;9970;-36.854;174.870;2022-12-18T14:42:39;100444.00;;;18.40
19644;BMP180;9970;-36.854;174.870;2022-12-18T14:45:33;100439.00;;;18.40
19644;BMP180;9970;-36.854;174.870;2022-12-18T14:48:09;100429.00;;;18.30
19644;BMP180;9970;-36.854;174.870;2022-12-18T14:50:44;100427.00;;;18.30
19644;BMP180;9970;-36.854;174.870;2022-12-18T14:53:23;100427.00;;;18.30
19644;BMP180;9970;-36.854;174.870;2022-12-18T14:55:57;100422.00;;;18.30
19644;BMP180;9970;-36.854;174.870;2022-12-18T14:58:30;100420.00;;;18.30
19644;BMP180;9970;-36.854;174.870;2022-12-18T15:01:03;100428.00;;;18.30
19644;BMP180;9970;-36.854;174.870;2022-12-18T15:03:36;100432.00;;;18.30
19644;BMP180;9970;-36.854;174.870;2022-12-18T15:06:39;100433.00;;;18.20
19644;BMP180;9970;-36.854;174.870;2022-12-18T15:08:58;100437.00;;;18.20
19644;BMP180;9970;-36.854;174.870;2022-12-18T15:11:44;100434.00;;;18.20
19644;BMP180;9970;-36.854;174.870;2022-12-18T15:14:33;100430.00;;;18.20
19644;BMP180;9970;-36.854;174.870;2022-12-18T15:17:21;100436.00;;;18.10
19644;BMP180;9970;-36.854;174.870;2022-12-18T15:19:53;100431.00;;;18.10
19644;BMP180;9970;-36.854;174.870;2022-12-18T15:22:28;100442.00;;;18.10
19644;BMP180;9970;-36.854;174.870;2022-12-18T15:25:03;100429.00;;;18.10
19644;BMP180;9970;-36.854;174.870;2022-12-18T15:27:37;100439.00;;;18.10
19644;BMP180;9970;-36.854;174.870;2022-12-18T15:32:45;100436.00;;;18.00